createdAt,value
2023-04-20T00:02:00.765Z,101220.41
2023-04-20T00:04:27.389Z,101211.88
2023-04-20T00:06:53.901Z,101211.09
2023-04-20T00:09:20.571Z,101204.28
2023-04-20T00:11:47.128Z,101211.25
2023-04-20T00:14:15.675Z,101197.22
2023-04-20T00:16:42.532Z,101198.34
2023-04-20T00:19:09.283Z,101194.16
2023-04-20T00:21:35.985Z,101169.66
2023-04-20T00:24:02.513Z,101176.81
2023-04-20T00:26:29.772Z,101168.81
2023-04-20T00:28:58.004Z,101164.25
2023-04-20T00:31:26.153Z,101162.56
2023-04-20T00:33:52.735Z,101156.34
2023-04-20T00:36:19.276Z,101154.19
2023-04-20T00:38:45.956Z,101151.13
2023-04-20T00:41:12.488Z,101147.25
2023-04-20T00:43:49.927Z,101112.69
2023-04-20T00:46:16.617Z,101143.16
2023-04-20T00:48:44.949Z,101123.00
2023-04-20T00:51:12.142Z,101128.94
2023-04-20T00:53:39.265Z,101118.31
2023-04-20T00:56:06.829Z,101120.88
2023-04-20T00:58:33.707Z,101125.84
2023-04-20T01:01:00.373Z,101119.34
2023-04-20T01:03:27.220Z,101118.22
2023-04-20T01:05:55.361Z,101100.25
2023-04-20T01:08:26.134Z,101112.06
2023-04-20T01:10:52.810Z,101114.38
2023-04-20T01:13:19.354Z,101103.88
2023-04-20T01:15:46.038Z,101099.03
2023-04-20T01:18:12.899Z,101074.53
2023-04-20T01:20:39.747Z,101096.13
2023-04-20T01:23:07.681Z,101096.88
2023-04-20T01:25:34.336Z,101105.47
2023-04-20T01:28:01.003Z,101100.03
2023-04-20T01:30:29.541Z,101091.78
2023-04-20T01:32:56.163Z,101082.50
2023-04-20T01:35:22.885Z,101092.50
2023-04-20T01:37:49.456Z,101089.63
2023-04-20T01:40:17.393Z,101066.63
2023-04-20T01:42:43.930Z,101086.72
2023-04-20T01:45:11.119Z,101078.63
2023-04-20T01:47:37.964Z,101071.50
2023-04-20T01:50:07.594Z,101065.88
2023-04-20T01:52:34.221Z,101058.84
2023-04-20T01:55:00.774Z,101060.31
2023-04-20T01:57:28.664Z,101059.22
2023-04-20T01:59:55.217Z,101066.03
2023-04-20T02:02:21.783Z,101065.13
2023-04-20T02:04:48.394Z,101058.97
2023-04-20T02:07:14.953Z,101026.50
2023-04-20T02:09:41.503Z,101054.25
2023-04-20T02:12:09.783Z,101049.69
2023-04-20T02:14:40.612Z,101048.69
2023-04-20T02:17:09.748Z,101051.06
2023-04-20T02:19:36.514Z,100948.47
2023-04-20T02:22:03.151Z,101031.59
2023-04-20T02:24:29.948Z,101026.00
2023-04-20T02:26:56.550Z,101021.63
2023-04-20T02:29:23.106Z,101018.16
2023-04-20T02:31:51.096Z,100992.72
2023-04-20T02:34:17.632Z,101010.94
2023-04-20T02:36:44.272Z,101011.59
2023-04-20T02:39:12.625Z,101013.03
2023-04-20T02:41:39.324Z,101009.41
2023-04-20T02:44:06.778Z,101008.50
2023-04-20T02:46:36.360Z,100989.84
2023-04-20T02:49:04.555Z,100995.31
2023-04-20T02:51:35.703Z,100971.81
2023-04-20T02:54:02.420Z,100990.84
2023-04-20T02:56:29.363Z,100985.44
2023-04-20T02:59:00.786Z,100923.94
2023-04-20T03:01:38.040Z,100952.25
2023-04-20T03:04:18.175Z,100985.09
2023-04-20T03:06:52.987Z,100973.78
2023-04-20T03:09:25.074Z,100977.06
2023-04-20T03:12:18.193Z,100974.38
2023-04-20T03:15:09.467Z,100973.31
2023-04-20T03:17:45.765Z,100974.84
2023-04-20T03:20:14.287Z,100969.78
2023-04-20T03:22:41.069Z,100970.97
2023-04-20T03:25:09.032Z,100973.47
2023-04-20T03:28:05.158Z,100976.84
2023-04-20T03:30:32.568Z,100961.66
2023-04-20T03:33:14.037Z,100971.63
2023-04-20T03:35:42.000Z,100954.50
2023-04-20T03:38:08.795Z,100971.16
2023-04-20T03:40:36.539Z,100968.63
2023-04-20T03:43:04.415Z,100932.59
2023-04-20T03:45:31.115Z,100977.31
2023-04-20T03:47:57.767Z,100970.97
2023-04-20T03:50:25.728Z,100976.69
2023-04-20T03:52:53.626Z,100961.72
2023-04-20T03:55:21.059Z,100964.59
2023-04-20T03:57:54.078Z,100956.75
2023-04-20T04:00:20.994Z,100958.72
2023-04-20T04:02:47.664Z,100962.25
2023-04-20T04:05:21.063Z,100953.28
2023-04-20T04:07:49.507Z,100952.09
2023-04-20T04:10:17.863Z,100950.03
2023-04-20T04:12:44.937Z,100952.28
2023-04-20T04:15:12.458Z,100942.50
2023-04-20T04:17:48.083Z,100942.97
2023-04-20T04:20:14.933Z,100943.63
2023-04-20T04:22:42.880Z,100941.84
2023-04-20T04:25:28.939Z,100941.56
2023-04-20T04:27:55.868Z,100912.66
2023-04-20T04:30:23.271Z,100951.41
2023-04-20T04:32:50.467Z,100945.97
2023-04-20T04:35:19.010Z,100936.16
2023-04-20T04:37:46.012Z,100912.59
2023-04-20T04:40:13.082Z,100927.91
2023-04-20T04:42:41.260Z,100937.00
2023-04-20T04:45:10.048Z,100878.03
2023-04-20T04:47:39.060Z,100936.63
2023-04-20T04:50:08.980Z,100934.66
2023-04-20T04:52:35.838Z,100926.06
2023-04-20T04:55:03.048Z,100929.84
2023-04-20T04:57:29.653Z,100921.72
2023-04-20T04:59:57.769Z,100896.75
2023-04-20T05:02:24.639Z,100918.63
2023-04-20T05:04:51.320Z,100924.16
2023-04-20T05:07:17.976Z,100920.59
2023-04-20T05:09:44.777Z,100914.22
2023-04-20T05:12:11.403Z,100924.97
2023-04-20T05:14:37.926Z,100924.84
2023-04-20T05:17:05.936Z,100918.69
2023-04-20T05:19:32.472Z,100918.22
2023-04-20T05:21:59.118Z,100929.69
2023-04-20T05:24:25.820Z,100909.34
2023-04-20T05:26:52.446Z,100931.94
2023-04-20T05:29:20.011Z,100934.16
2023-04-20T05:31:46.786Z,100893.53
2023-04-20T05:34:14.693Z,100938.06
2023-04-20T05:36:41.311Z,100935.69
2023-04-20T05:39:08.123Z,100925.22
2023-04-20T05:41:34.728Z,100937.72
2023-04-20T05:44:01.364Z,100928.56
2023-04-20T05:46:28.004Z,100923.53
2023-04-20T05:48:54.650Z,100921.44
2023-04-20T05:51:22.780Z,100927.22
2023-04-20T05:53:49.466Z,100929.84
2023-04-20T05:56:16.058Z,100901.16
2023-04-20T05:58:43.171Z,100912.97
2023-04-20T06:01:10.129Z,100892.50
2023-04-20T06:03:36.810Z,100932.75
2023-04-20T06:06:04.236Z,100924.47
2023-04-20T06:08:32.193Z,100930.44
2023-04-20T06:10:58.810Z,100926.75
2023-04-20T06:13:25.452Z,100932.63
2023-04-20T06:15:52.133Z,100919.50
2023-04-20T06:18:18.705Z,100887.91
2023-04-20T06:20:45.576Z,100934.75
2023-04-20T06:23:12.200Z,100934.44
2023-04-20T06:25:40.347Z,100883.19
2023-04-20T06:28:07.319Z,100902.81
2023-04-20T06:30:34.314Z,100930.13
2023-04-20T06:33:01.052Z,100928.03
2023-04-20T06:35:27.739Z,100911.22
2023-04-20T06:37:54.309Z,100928.66
2023-04-20T06:40:20.960Z,100925.41
2023-04-20T06:42:48.878Z,100919.63
2023-04-20T06:45:15.491Z,100927.19
2023-04-20T06:47:42.084Z,100922.25
2023-04-20T06:50:09.368Z,100923.75
2023-04-20T06:52:37.107Z,100923.41
2023-04-20T06:55:04.224Z,100914.59
2023-04-20T06:57:31.837Z,100919.84
2023-04-20T06:59:59.824Z,100917.31
2023-04-20T07:02:27.495Z,100857.97
2023-04-20T07:05:00.925Z,100888.66
2023-04-20T07:07:27.636Z,100912.16
2023-04-20T07:09:54.188Z,100884.25
2023-04-20T07:12:20.797Z,100881.22
2023-04-20T07:14:47.331Z,100905.88
2023-04-20T07:17:15.306Z,100906.72
2023-04-20T07:19:41.857Z,100904.84
2023-04-20T07:22:08.459Z,100906.19
2023-04-20T07:24:34.983Z,100897.06
2023-04-20T07:27:01.664Z,100903.84
2023-04-20T07:29:28.221Z,100910.16
2023-04-20T07:31:54.838Z,100898.06
2023-04-20T07:34:22.829Z,100903.00
2023-04-20T07:36:50.046Z,100899.75
2023-04-20T07:39:16.730Z,100899.72
2023-04-20T07:41:43.598Z,100895.81
2023-04-20T07:44:10.145Z,100901.25
2023-04-20T07:46:36.731Z,100887.94
2023-04-20T07:49:03.405Z,100890.16
2023-04-20T07:51:31.375Z,100903.16
2023-04-20T07:53:57.962Z,100903.94
2023-04-20T07:56:24.591Z,100901.81
2023-04-20T07:58:51.147Z,100897.56
2023-04-20T08:01:17.767Z,100894.47
2023-04-20T08:03:44.401Z,100892.66
2023-04-20T08:06:11.096Z,100844.97
2023-04-20T08:08:38.993Z,100892.88
2023-04-20T08:11:05.738Z,100893.56
2023-04-20T08:13:32.281Z,100867.34
2023-04-20T08:15:59.077Z,100876.25
2023-04-20T08:18:25.794Z,100869.41
2023-04-20T08:20:52.388Z,100897.31
2023-04-20T08:23:18.934Z,100897.59
2023-04-20T08:25:46.928Z,100894.03
2023-04-20T08:28:24.239Z,100894.41
2023-04-20T08:30:56.406Z,100892.59
2023-04-20T08:33:23.131Z,100901.22
2023-04-20T08:35:50.585Z,100894.41
2023-04-20T08:38:20.811Z,100888.06
2023-04-20T08:40:51.866Z,100886.53
2023-04-20T08:43:19.198Z,100891.78
2023-04-20T08:45:49.285Z,100882.22
2023-04-20T08:48:19.581Z,100887.38
2023-04-20T08:50:47.116Z,100869.63
2023-04-20T08:53:13.654Z,100878.03
2023-04-20T08:55:40.238Z,100882.56
2023-04-20T08:58:08.137Z,100886.41
2023-04-20T09:00:34.799Z,100885.44
2023-04-20T09:03:01.533Z,100852.84
2023-04-20T09:05:29.872Z,100883.78
2023-04-20T09:07:57.877Z,100878.63
2023-04-20T09:10:25.612Z,100878.84
2023-04-20T09:12:52.621Z,100877.66
2023-04-20T09:15:28.182Z,100867.25
2023-04-20T09:17:55.299Z,100859.81
2023-04-20T09:20:32.116Z,100870.97
2023-04-20T09:23:10.710Z,100875.88
2023-04-20T09:25:37.600Z,100887.47
2023-04-20T09:28:04.578Z,100839.34
2023-04-20T09:30:39.560Z,100880.06
2023-04-20T09:33:06.406Z,100877.56
2023-04-20T09:35:32.961Z,100872.88
2023-04-20T09:37:59.731Z,100872.03
2023-04-20T09:40:26.372Z,100874.44
2023-04-20T09:42:53.824Z,100876.97
2023-04-20T09:45:21.106Z,100830.63
2023-04-20T09:47:50.079Z,100878.28
2023-04-20T09:50:26.743Z,100845.31
2023-04-20T09:53:00.462Z,100874.66
2023-04-20T09:55:27.650Z,100874.88
2023-04-20T09:57:54.256Z,100872.88
2023-04-20T10:00:22.115Z,100872.03
2023-04-20T10:02:50.520Z,100854.06
2023-04-20T10:05:17.206Z,100859.53
2023-04-20T10:07:44.286Z,100856.44
2023-04-20T10:10:12.400Z,100863.47
2023-04-20T10:12:49.403Z,100866.47
2023-04-20T10:15:16.677Z,100828.84
2023-04-20T10:17:43.560Z,100865.59
2023-04-20T10:20:24.190Z,100861.50
2023-04-20T10:22:51.822Z,100862.06
2023-04-20T10:25:20.329Z,100863.75
2023-04-20T10:27:55.509Z,100865.53
2023-04-20T10:30:22.937Z,100842.69
2023-04-20T10:32:49.990Z,100864.94
2023-04-20T10:35:17.032Z,100866.75
2023-04-20T10:37:51.804Z,100865.53
2023-04-20T10:40:25.323Z,100865.50
2023-04-20T10:42:51.958Z,100871.06
2023-04-20T10:45:18.606Z,100825.44
2023-04-20T10:47:45.567Z,100840.72
2023-04-20T10:50:14.778Z,100874.59
2023-04-20T10:52:43.462Z,100874.38
2023-04-20T10:55:20.533Z,100870.66
2023-04-20T10:57:47.399Z,100863.59
2023-04-20T11:00:16.260Z,100822.78
2023-04-20T11:02:47.457Z,100820.09
2023-04-20T11:05:14.805Z,100872.91
2023-04-20T11:07:47.962Z,100839.81
2023-04-20T11:10:14.648Z,100860.47
2023-04-20T11:12:42.620Z,100861.00
2023-04-20T11:15:10.076Z,100847.47
2023-04-20T11:17:37.787Z,100777.78
2023-04-20T11:20:05.875Z,100850.44
2023-04-20T11:22:32.443Z,100825.56
2023-04-20T11:25:03.871Z,100775.34
2023-04-20T11:27:30.527Z,100852.94
2023-04-20T11:29:58.765Z,100836.41
2023-04-20T11:32:26.639Z,100852.75
2023-04-20T11:35:06.485Z,100833.38
2023-04-20T11:37:34.537Z,100849.75
2023-04-20T11:40:03.127Z,100821.91
2023-04-20T11:42:30.018Z,100849.72
2023-04-20T11:44:58.584Z,100845.78
2023-04-20T11:47:25.321Z,100835.44
2023-04-20T11:49:51.861Z,100841.56
2023-04-20T11:52:18.662Z,100816.41
2023-04-20T11:54:45.227Z,100836.13
2023-04-20T11:57:12.097Z,100836.72
2023-04-20T11:59:38.880Z,100813.88
2023-04-20T12:02:07.187Z,100826.03
2023-04-20T12:04:34.175Z,100828.72
2023-04-20T12:07:01.195Z,100792.31
2023-04-20T12:09:28.372Z,100825.66
2023-04-20T12:11:55.020Z,100830.94
2023-04-20T12:14:21.593Z,100837.34
2023-04-20T12:16:48.249Z,100828.28
2023-04-20T12:19:16.319Z,100819.66
2023-04-20T12:21:43.258Z,100814.09
2023-04-20T12:24:09.879Z,100812.41
2023-04-20T12:26:38.761Z,100800.13
2023-04-20T12:29:05.621Z,100807.13
2023-04-20T12:31:32.385Z,100805.16
2023-04-20T12:33:59.300Z,100795.13
2023-04-20T12:36:27.414Z,100794.94
2023-04-20T12:38:54.256Z,100791.28
2023-04-20T12:41:20.942Z,100781.00
2023-04-20T12:43:47.491Z,100781.00
2023-04-20T12:46:14.287Z,100758.00
2023-04-20T12:48:40.881Z,100776.28
2023-04-20T12:51:07.631Z,100739.84
2023-04-20T12:53:35.850Z,100782.09
2023-04-20T12:56:02.574Z,100777.63
2023-04-20T12:58:29.138Z,100770.78
2023-04-20T13:00:56.032Z,100756.00
2023-04-20T13:03:22.812Z,100767.78
2023-04-20T13:05:50.150Z,100741.19
2023-04-20T13:08:17.047Z,100754.75
2023-04-20T13:10:45.348Z,100730.59
2023-04-20T13:13:11.929Z,100730.84
2023-04-20T13:15:39.457Z,100734.13
2023-04-20T13:18:06.788Z,100685.00
2023-04-20T13:20:33.504Z,100713.75
2023-04-20T13:23:01.143Z,100730.28
2023-04-20T13:25:29.370Z,100742.31
2023-04-20T13:27:57.442Z,100744.00
2023-04-20T13:30:24.781Z,100742.44
2023-04-20T13:32:51.616Z,100733.19
2023-04-20T13:35:21.455Z,100747.47
2023-04-20T13:37:48.309Z,100703.94
2023-04-20T13:40:15.237Z,100739.66
2023-04-20T13:42:41.792Z,100749.56
2023-04-20T13:45:10.927Z,100746.69
2023-04-20T13:47:38.005Z,100636.75
2023-04-20T13:50:05.275Z,100736.47
2023-04-20T13:52:31.920Z,100695.81
2023-04-20T13:54:58.573Z,100710.44
2023-04-20T13:57:25.168Z,100704.69
2023-04-20T13:59:51.889Z,100727.69
2023-04-20T14:02:19.944Z,100721.13
2023-04-20T14:04:46.893Z,100721.97
2023-04-20T14:07:13.581Z,100722.25
2023-04-20T14:09:40.231Z,100724.88
2023-04-20T14:12:06.950Z,100713.28
2023-04-20T14:14:33.590Z,100710.13
2023-04-20T14:17:00.514Z,100706.56
2023-04-20T14:19:28.583Z,100707.16
2023-04-20T14:21:55.136Z,100711.06
2023-04-20T14:24:21.767Z,100709.97
2023-04-20T14:26:50.198Z,100708.63
2023-04-20T14:29:16.974Z,100685.69
2023-04-20T14:31:43.616Z,100711.84
2023-04-20T14:34:10.410Z,100697.91
2023-04-20T14:36:38.335Z,100598.09
2023-04-20T14:39:06.990Z,100698.47
2023-04-20T14:41:33.789Z,100669.19
2023-04-20T14:44:00.770Z,100696.75
2023-04-20T14:46:27.435Z,100691.28
2023-04-20T14:48:54.078Z,100680.28
2023-04-20T14:51:20.717Z,100653.84
2023-04-20T14:53:48.648Z,100684.63
2023-04-20T14:56:15.300Z,100654.81
2023-04-20T14:58:41.941Z,100676.59
2023-04-20T15:01:08.582Z,100673.22
2023-04-20T15:03:35.359Z,100674.88
2023-04-20T15:06:02.786Z,100618.38
2023-04-20T15:08:29.371Z,100666.84
2023-04-20T15:10:57.389Z,100634.91
2023-04-20T15:13:24.321Z,100661.78
2023-04-20T15:15:53.377Z,100632.16
2023-04-20T15:18:21.531Z,100647.16
2023-04-20T15:20:48.266Z,100646.94
2023-04-20T15:23:14.848Z,100613.03
2023-04-20T15:25:41.427Z,100608.41
2023-04-20T15:28:09.612Z,100631.88
2023-04-20T15:30:36.252Z,100632.19
2023-04-20T15:33:05.092Z,100622.41
2023-04-20T15:35:32.337Z,100640.19
2023-04-20T15:37:58.981Z,100617.94
2023-04-20T15:40:25.762Z,100634.97
2023-04-20T15:42:52.404Z,100628.47
2023-04-20T15:45:20.345Z,100632.38
2023-04-20T15:47:47.434Z,100646.63
2023-04-20T15:50:14.525Z,100644.50
2023-04-20T15:52:41.103Z,100636.44
2023-04-20T15:55:10.353Z,100659.38
2023-04-20T15:57:37.219Z,100684.97
2023-04-20T16:00:04.342Z,100676.41
2023-04-20T16:02:38.492Z,100660.34
2023-04-20T16:05:06.312Z,100694.66
2023-04-20T16:07:32.928Z,100693.72
2023-04-20T16:09:59.579Z,100704.19
2023-04-20T16:12:26.195Z,100703.78
2023-04-20T16:14:53.918Z,100690.81
2023-04-20T16:17:20.684Z,100716.00
2023-04-20T16:19:48.750Z,100705.69
2023-04-20T16:22:15.353Z,100725.16
2023-04-20T16:24:42.015Z,100722.41
2023-04-20T16:27:08.558Z,100739.25
2023-04-20T16:29:35.193Z,100724.19
2023-04-20T16:32:01.809Z,100747.38
2023-04-20T16:34:28.527Z,100750.53
2023-04-20T16:36:56.406Z,100763.81
2023-04-20T16:39:23.205Z,100756.53
2023-04-20T16:41:50.736Z,100736.09
2023-04-20T16:44:17.516Z,100750.25
2023-04-20T16:46:44.343Z,100752.13
2023-04-20T16:49:11.027Z,100752.25
2023-04-20T16:51:37.574Z,100748.47
2023-04-20T16:54:06.098Z,100725.16
2023-04-20T16:56:32.705Z,100681.25
2023-04-20T16:58:59.357Z,100750.34
2023-04-20T17:01:33.572Z,100754.97
2023-04-20T17:04:00.429Z,100759.97
2023-04-20T17:06:27.167Z,100758.63
2023-04-20T17:08:53.909Z,100752.25
2023-04-20T17:11:21.885Z,100752.94
2023-04-20T17:13:48.520Z,100758.81
2023-04-20T17:16:15.121Z,100758.53
2023-04-20T17:18:42.129Z,100632.25
2023-04-20T17:21:08.738Z,100766.84
2023-04-20T17:23:35.572Z,100733.69
2023-04-20T17:26:02.595Z,100750.78
2023-04-20T17:28:30.794Z,100764.09
2023-04-20T17:30:57.440Z,100775.88
2023-04-20T17:33:24.338Z,100766.53
2023-04-20T17:35:50.915Z,100780.44
2023-04-20T17:38:17.691Z,100771.69
2023-04-20T17:40:44.500Z,100773.31
2023-04-20T17:43:12.490Z,100779.56
2023-04-20T17:45:40.741Z,100785.28
2023-04-20T17:48:07.757Z,100778.44
2023-04-20T17:50:34.842Z,100777.59
2023-04-20T17:53:01.881Z,100780.91
2023-04-20T17:55:28.647Z,100783.19
2023-04-20T17:57:55.270Z,100786.44
2023-04-20T18:00:21.978Z,100742.22
2023-04-20T18:02:50.040Z,100749.03
2023-04-20T18:05:16.764Z,100763.38
2023-04-20T18:07:43.618Z,100746.66
2023-04-20T18:10:10.982Z,100769.53
2023-04-20T18:12:37.592Z,100773.88
2023-04-20T18:15:07.530Z,100760.94
2023-04-20T18:17:34.932Z,100746.50
2023-04-20T18:20:03.238Z,100765.63
2023-04-20T18:22:29.855Z,100764.47
2023-04-20T18:24:56.379Z,100756.06
2023-04-20T18:27:23.236Z,100764.00
2023-04-20T18:29:49.780Z,100735.41
2023-04-20T18:32:16.433Z,100761.00
2023-04-20T18:34:43.298Z,100744.16
2023-04-20T18:37:11.303Z,100764.03
2023-04-20T18:39:37.838Z,100762.47
2023-04-20T18:42:04.949Z,100696.91
2023-04-20T18:44:31.588Z,100766.06
2023-04-20T18:46:58.481Z,100767.72
2023-04-20T18:49:25.100Z,100759.84
2023-04-20T18:51:53.281Z,100766.41
2023-04-20T18:54:21.242Z,100755.06
2023-04-20T18:56:47.925Z,100763.31
2023-04-20T18:59:14.461Z,100763.31
2023-04-20T19:01:41.088Z,100752.53
2023-04-20T19:04:08.550Z,100771.94
2023-04-20T19:06:35.679Z,100763.19
2023-04-20T19:09:02.239Z,100761.53
2023-04-20T19:11:31.143Z,100748.94
2023-04-20T19:13:57.653Z,100760.69
2023-04-20T19:16:24.238Z,100763.19
2023-04-20T19:18:50.917Z,100763.19
2023-04-20T19:21:17.506Z,100749.91
2023-04-20T19:23:44.057Z,100747.75
2023-04-20T19:26:10.675Z,100743.09
2023-04-20T19:28:38.944Z,100740.81
2023-04-20T19:31:05.637Z,100749.56
2023-04-20T19:33:32.149Z,100737.72
2023-04-20T19:35:58.750Z,100734.38
2023-04-20T19:38:25.282Z,100725.75
2023-04-20T19:40:52.129Z,100723.38
2023-04-20T19:43:18.689Z,100732.44
2023-04-20T19:45:46.707Z,100728.00
2023-04-20T19:48:13.359Z,100724.53
2023-04-20T19:50:40.179Z,100726.47
2023-04-20T19:53:07.035Z,100727.53
2023-04-20T19:55:33.643Z,100727.81
2023-04-20T19:58:00.166Z,100735.44
2023-04-20T20:00:26.836Z,100734.75
2023-04-20T20:02:54.960Z,100732.91
2023-04-20T20:05:21.716Z,100741.81
2023-04-20T20:07:48.259Z,100751.72
2023-04-20T20:10:14.835Z,100764.03
2023-04-20T20:12:41.450Z,100769.31
2023-04-20T20:15:08.544Z,100774.81
2023-04-20T20:17:35.162Z,100766.19
2023-04-20T20:20:03.975Z,100766.09
2023-04-20T20:22:30.488Z,100774.44
2023-04-20T20:24:57.015Z,100776.59
2023-04-20T20:27:23.602Z,100779.25
2023-04-20T20:29:50.252Z,100776.81
2023-04-20T20:32:16.820Z,100775.28
2023-04-20T20:34:43.518Z,100775.50
2023-04-20T20:37:11.446Z,100767.72
2023-04-20T20:39:38.103Z,100784.59
2023-04-20T20:42:07.057Z,100778.00
2023-04-20T20:44:35.238Z,100760.28
2023-04-20T20:47:01.843Z,100764.28
2023-04-20T20:49:28.573Z,100754.13
2023-04-20T20:51:55.118Z,100753.41
2023-04-20T20:54:23.107Z,100756.28
2023-04-20T20:56:49.689Z,100745.28
2023-04-20T20:59:16.489Z,100742.38
2023-04-20T21:01:43.249Z,100734.59
2023-04-20T21:04:10.290Z,100747.66
2023-04-20T21:06:37.244Z,100748.50
2023-04-20T21:09:04.224Z,100757.44
2023-04-20T21:11:32.191Z,100754.09
2023-04-20T21:13:58.814Z,100725.47
2023-04-20T21:16:27.380Z,100755.78
2023-04-20T21:18:54.118Z,100757.78
2023-04-20T21:21:20.926Z,100753.38
2023-04-20T21:23:47.608Z,100744.38
2023-04-20T21:26:14.162Z,100749.16
2023-04-20T21:28:42.139Z,100736.03
2023-04-20T21:31:08.700Z,100745.59
2023-04-20T21:33:35.399Z,100721.53
2023-04-20T21:36:02.033Z,100735.22
2023-04-20T21:38:28.737Z,100726.59
2023-04-20T21:40:55.310Z,100735.44
2023-04-20T21:43:21.901Z,100726.59
2023-04-20T21:45:50.002Z,100724.31
2023-04-20T21:48:16.933Z,100727.66
2023-04-20T21:50:43.526Z,100725.75
2023-04-20T21:53:10.172Z,100720.50
2023-04-20T21:55:36.811Z,100710.06
2023-04-20T21:58:03.541Z,100702.19
2023-04-20T22:00:30.098Z,100697.88
2023-04-20T22:02:58.235Z,100695.38
2023-04-20T22:05:24.938Z,100698.13
2023-04-20T22:07:51.665Z,100699.66
2023-04-20T22:10:18.622Z,100696.69
2023-04-20T22:12:45.215Z,100708.66
2023-04-20T22:15:13.956Z,100688.75
2023-04-20T22:17:41.462Z,100693.06
2023-04-20T22:20:10.825Z,100712.22
2023-04-20T22:22:38.675Z,100707.22
2023-04-20T22:25:06.580Z,100707.22
2023-04-20T22:27:34.140Z,100719.50
2023-04-20T22:30:00.747Z,100709.00
2023-04-20T22:32:27.786Z,100693.16
2023-04-20T22:34:54.437Z,100675.41
2023-04-20T22:37:22.493Z,100695.00
2023-04-20T22:39:49.077Z,100614.31
2023-04-20T22:42:15.800Z,100689.28
2023-04-20T22:44:42.323Z,100683.16
2023-04-20T22:47:09.048Z,100676.22
2023-04-20T22:49:35.717Z,100667.97
2023-04-20T22:52:02.334Z,100676.22
2023-04-20T22:54:30.522Z,100669.50
2023-04-20T22:56:57.098Z,100685.56
2023-04-20T22:59:23.634Z,100680.91
2023-04-20T23:01:50.301Z,100669.69
2023-04-20T23:04:16.870Z,100654.84
2023-04-20T23:06:43.502Z,100654.97
2023-04-20T23:09:10.097Z,100659.50
2023-04-20T23:11:38.115Z,100646.38
2023-04-20T23:14:04.691Z,100647.22
2023-04-20T23:16:31.466Z,100634.75
2023-04-20T23:18:58.047Z,100645.53
2023-04-20T23:21:24.772Z,100643.84
2023-04-20T23:23:51.326Z,100637.16
2023-04-20T23:26:17.930Z,100641.19
2023-04-20T23:28:45.778Z,100654.84
2023-04-20T23:31:12.554Z,100630.31
2023-04-20T23:33:39.212Z,100647.91
2023-04-20T23:36:06.481Z,100621.69
2023-04-20T23:38:33.060Z,100652.94
2023-04-20T23:40:59.650Z,100639.91
2023-04-20T23:43:26.423Z,100646.09
2023-04-20T23:45:54.572Z,100634.75
2023-04-20T23:48:21.136Z,100623.50
2023-04-20T23:50:48.618Z,100635.69
2023-04-20T23:53:15.196Z,100626.13
2023-04-20T23:55:41.786Z,100626.28
2023-04-20T23:58:08.304Z,100627.34
